Terminal Aerodrome Forecast
Issued by NWS

Home | Current Version | Previous Version | Text Only | Print | Product List | Glossary On
Versions: 1 2 3 4 5 6 7 8 9 10 11 12 13 14 15 16 17 18 19 20 21 22 23
000
FTUS42 KMFL 010532
TAFMIA
TAF
KMIA 010532Z 0106/0206 09010KT P6SM BKN022 BKN030 BKN250
      TEMPO 0106/0108 09010KT P6SM SCT022 SCT030 BKN250
     FM010800 09010KT P6SM SCT022 SCT030 BKN250
     FM011500 11012G18KT P6SM SCT030 BKN250
     FM020000 09012KT P6SM SCT050 SCT250=

USA.gov is the U.S. government's official web portal to all federal, state and local government web resources and services.